Main page
METAR-TAF:

METAR-TAF

Airports :

Tekirdağ Çorlu Airport

Çorlu, Turkey

latitude: 41-08N, longitude: 027-55E, elevation: 173 m

Current weather observation

The report was made 28 minutes ago, at 16:50 UTC
Wind 2 kt from variable directions
Temperature 20°C
Humidity 46%
Pressure 1016 hPa
Visibility 10 km or more
no clouds below 1500 m and no cumulonimbus

METAR: LTBU 161650Z VRB02KT CAVOK 20/08 Q1016 RMK RWY22 04004KT

Time: 20:18 (17:18 UTC)

Forecast

The report was made 6 hours and 38 minutes ago, at 10:40 UTC
Forecast valid from 16 at 12 UTC to 17 at 12 UTC
Wind 7 kt from the North/Northwest
Visibility 10 km or more
no clouds below 1500 m and no cumulonimbus
Becoming
from 17 at 05 UTC to 17 at 08 UTC
Wind 12 kt from the West/Southwest

TAF: LTBU 161040Z 1612/1712 34007KT CAVOK BECMG 1705/1708 24012KT

Weather observations and forecasts of more than 4000 airports (METAR and TAF reports).

The available stations are represented by yellow and red dots on the map.

Hover mouse over dot to see the name of the station.

Then click to see weather observations and forecasts.

To change the map : click on the green buttons with a black cross to zoom in, on the green button with a dash to zoom out, or on the green arrows for adjacent maps.


METAR-TAF: